Time;durP1;ratioP1;P1;durP2;ratioP2;P2;SDS_P1;SDS_P2;PMS_P1;PMS_P2;Temp;Humidity;BMP_temperature;BMP_pressure;BME280_temperature;BME280_humidity;BME280_pressure;Samples;Min_cycle;Max_cycle;Signal;HPM_P1;HPM_P2
2023/07/09 00:00:35;;;;;;;2.25;1.35;;;;;;;-145.06;0.00;60892.56;5923931;23;20313;-93
2023/07/09 00:03:15;;;;;;;2.20;1.42;;;;;;;-145.06;0.00;60892.56;5924642;23;20009;-95
2023/07/09 00:05:54;;;;;;;2.22;1.40;;;;;;;-145.06;0.00;60892.56;5924245;23;20009;-93
2023/07/09 00:08:33;;;;;;;1.40;1.23;;;;;;;-145.06;0.00;60892.56;5923758;23;20224;-93
2023/07/09 00:11:12;;;;;;;1.50;1.13;;;;;;;-145.06;0.00;60892.56;5924474;23;20006;-93
2023/07/09 00:13:51;;;;;;;1.80;1.20;;;;;;;-145.06;0.00;60892.56;5924034;23;20005;-93
2023/07/09 00:16:31;;;;;;;2.72;1.80;;;;;;;-145.06;0.00;60892.56;5946120;23;20010;-95
2023/07/09 00:19:18;;;;;;;1.63;1.30;;;;;;;-145.06;0.00;60892.56;5924108;23;20013;-92
2023/07/09 00:21:57;;;;;;;2.47;1.48;;;;;;;-145.06;0.00;60892.56;5923634;23;20009;-92
2023/07/09 00:24:36;;;;;;;2.10;1.38;;;;;;;-145.06;0.00;60892.56;5924578;23;20005;-92
2023/07/09 00:27:18;;;;;;;2.05;1.20;;;;;;;-145.06;0.00;60892.56;5924233;23;20009;-93
2023/07/09 00:29:57;;;;;;;2.35;1.48;;;;;;;-145.06;0.00;60892.56;5923953;23;20001;-93
2023/07/09 00:32:43;;;;;;;2.40;1.60;;;;;;;-145.06;0.00;60892.56;5924373;23;20449;-92
2023/07/09 00:35:23;;;;;;;1.83;1.40;;;;;;;-145.06;0.00;60892.56;5923541;23;20009;-94
2023/07/09 00:38:02;;;;;;;1.83;1.33;;;;;;;-145.06;0.00;60892.56;5924244;23;20002;-93
2023/07/09 00:41:02;;;;;;;2.08;1.48;;;;;;;-145.06;0.00;60892.56;5923627;23;20029;-91
2023/07/09 00:43:41;;;;;;;5.20;1.70;;;;;;;-145.06;0.00;60892.56;5924157;23;20005;-94
2023/07/09 00:46:20;;;;;;;1.92;1.50;;;;;;;-145.06;0.00;60892.56;5923623;23;20398;-93
2023/07/09 00:49:09;;;;;;;2.13;1.23;;;;;;;-145.06;0.00;60892.56;5919586;23;20006;-91
2023/07/09 00:51:48;;;;;;;2.45;1.58;;;;;;;-145.06;0.00;60892.56;5937356;23;20002;-92
2023/07/09 00:54:38;;;;;;;2.22;1.20;;;;;;;-145.06;0.00;60892.56;5916585;23;20009;-93
2023/07/09 00:57:23;;;;;;;2.05;1.33;;;;;;;-145.06;0.00;60892.56;5895574;23;20005;-92
2023/07/09 01:00:09;;;;;;;2.25;1.67;;;;;;;-145.06;0.00;60892.56;5916077;23;20010;-93
2023/07/09 01:02:50;;;;;;;1.98;1.70;;;;;;;-145.06;0.00;60892.56;5915758;23;20006;-93
2023/07/09 01:05:30;;;;;;;2.22;1.50;;;;;;;23.67;0.00;60892.56;5937228;23;20268;-93
2023/07/09 01:08:10;;;;;;;4.13;1.38;;;;;;;-145.06;0.00;60892.56;5915981;23;20006;-94
2023/07/09 01:10:49;;;;;;;3.13;1.38;;;;;;;-145.06;0.00;60892.56;5915648;23;20002;-94
2023/07/09 01:13:32;;;;;;;2.78;1.63;;;;;;;-145.06;0.00;60892.56;5916511;23;20006;-93
2023/07/09 01:16:11;;;;;;;1.83;1.40;;;;;;;23.56;0.00;60892.56;5915824;23;20006;-93
2023/07/09 01:18:50;;;;;;;2.33;1.50;;;;;;;-145.06;0.00;60892.56;5895289;23;20013;-93
2023/07/09 01:21:30;;;;;;;2.45;1.40;;;;;;;-145.06;0.00;60892.56;5915468;23;20010;-93
2023/07/09 01:24:14;;;;;;;3.65;1.60;;;;;;;-145.06;0.00;60892.56;5915626;23;20073;-93
2023/07/09 01:26:54;;;;;;;2.60;1.80;;;;;;;-145.06;0.00;60892.56;5916164;23;20006;-93
2023/07/09 01:29:35;;;;;;;3.95;1.92;;;;;;;-145.06;0.00;60892.56;5915980;23;20014;-93
2023/07/09 01:32:18;;;;;;;2.80;1.77;;;;;;;23.38;0.00;60892.56;5915613;23;20033;-93
2023/07/09 01:35:04;;;;;;;2.97;1.63;;;;;;;-145.06;0.00;60892.56;5915670;23;20006;-94
2023/07/09 01:37:44;;;;;;;2.00;1.60;;;;;;;-145.06;0.00;60892.56;5915593;23;20519;-94
2023/07/09 01:40:27;;;;;;;1.67;1.30;;;;;;;-145.06;0.00;60892.56;5936360;23;20006;-93
2023/07/09 01:43:06;;;;;;;2.47;1.40;;;;;;;-145.06;0.00;60892.56;5915523;23;20307;-92
2023/07/09 01:45:49;;;;;;;1.48;1.15;;;;;;;-145.06;0.00;60892.56;5915147;23;20010;-92
2023/07/09 01:48:28;;;;;;;2.00;1.30;;;;;;;-145.06;0.00;60892.56;5916094;23;20010;-92
2023/07/09 01:51:14;;;;;;;2.90;1.57;;;;;;;-145.06;0.00;60892.56;5894391;23;20425;-92
2023/07/09 01:53:53;;;;;;;1.40;1.20;;;;;;;-145.06;0.00;60892.56;5915141;23;20305;-92
2023/07/09 01:56:32;;;;;;;2.00;1.50;;;;;;;-145.06;0.00;60892.56;5915886;23;20014;-94
2023/07/09 01:59:11;;;;;;;1.55;1.15;;;;;;;-145.06;0.00;60892.56;5915303;23;20010;-93
2023/07/09 02:01:55;;;;;;;2.25;1.60;;;;;;;-145.06;0.00;60892.56;5914809;23;20033;-93
2023/07/09 02:04:34;;;;;;;2.78;1.70;;;;;;;-145.06;0.00;60892.56;5895155;23;20385;-92
2023/07/09 02:07:14;;;;;;;2.03;1.55;;;;;;;-145.06;0.00;60892.56;5894941;23;20006;-93
2023/07/09 02:09:54;;;;;;;2.90;1.30;;;;;;;-145.06;0.00;60892.56;5915677;23;20033;-92
2023/07/09 02:12:34;;;;;;;1.67;1.35;;;;;;;-145.06;0.00;60892.56;5914993;23;20010;-92
2023/07/09 02:15:14;;;;;;;2.65;1.48;;;;;;;-145.06;0.00;60892.56;5915316;23;20330;-92
2023/07/09 02:17:53;;;;;;;3.97;1.40;;;;;;;-145.06;0.00;60892.56;5916123;23;20006;-93
2023/07/09 02:20:32;;;;;;;1.58;1.30;;;;;;;-145.06;0.00;60892.56;5914693;23;20013;-92
2023/07/09 02:23:11;;;;;;;2.72;1.38;;;;;;;-145.06;0.00;60892.56;5895086;23;20010;-92
2023/07/09 02:25:50;;;;;;;2.65;1.30;;;;;;;-145.06;0.00;60892.56;5925839;23;20437;-93
2023/07/09 02:28:29;;;;;;;2.42;1.48;;;;;;;-145.06;0.00;60892.56;5914991;23;20006;-92
2023/07/09 02:31:08;;;;;;;2.13;1.47;;;;;;;-145.06;0.00;60892.56;5915449;23;20013;-93
2023/07/09 02:33:47;;;;;;;2.08;1.40;;;;;;;104.26;0.00;60892.56;5915193;23;20237;-94
2023/07/09 02:36:26;;;;;;;1.90;1.30;;;;;;;-145.06;0.00;60892.56;5916232;23;20010;-92
2023/07/09 02:39:05;;;;;;;1.85;1.33;;;;;;;-145.06;0.00;60892.56;5926202;23;20441;-92
2023/07/09 02:41:44;;;;;;;2.08;1.50;;;;;;;-145.06;0.00;60892.56;5914991;23;20382;-92
2023/07/09 02:44:23;;;;;;;1.50;1.05;;;;;;;-145.06;0.00;60892.56;5926252;23;20425;-93
2023/07/09 02:47:02;;;;;;;1.50;1.10;;;;;;;-145.06;0.00;60892.56;5914742;23;20006;-93
2023/07/09 02:49:42;;;;;;;1.55;1.27;;;;;;;-145.06;0.00;60892.56;5914714;23;20005;-93
2023/07/09 02:52:21;;;;;;;2.03;1.40;;;;;;;-145.06;0.00;60892.56;5915292;23;20006;-92
2023/07/09 02:55:00;;;;;;;1.60;1.30;;;;;;;-145.06;0.00;60892.56;5915411;23;20010;-91
2023/07/09 02:57:39;;;;;;;2.47;1.48;;;;;;;-145.06;0.00;60892.56;5915779;23;20006;-93
2023/07/09 03:00:18;;;;;;;3.38;1.33;;;;;;;-145.06;0.00;60892.56;5915245;23;20031;-93
2023/07/09 03:02:57;;;;;;;2.25;1.35;;;;;;;-145.06;0.00;60892.56;5915288;23;20014;-93
2023/07/09 03:05:36;;;;;;;2.05;1.50;;;;;;;-145.06;0.00;60892.56;5914855;23;20064;-94
2023/07/09 03:08:15;;;;;;;2.15;1.40;;;;;;;23.67;0.00;60892.56;5894684;23;20009;-93
2023/07/09 03:10:54;;;;;;;3.30;1.48;;;;;;;-145.06;0.00;60892.56;5916466;23;20014;-92
2023/07/09 03:13:33;;;;;;;1.85;1.52;;;;;;;41.86;0.00;60892.56;5917251;23;20013;-92
2023/07/09 03:16:13;;;;;;;2.10;1.40;;;;;;;-145.06;0.00;60892.56;5927605;23;20362;-93
2023/07/09 03:18:51;;;;;;;2.47;1.30;;;;;;;-145.06;0.00;60892.56;5916901;23;20238;-92
2023/07/09 03:21:32;;;;;;;2.53;1.48;;;;;;;22.35;0.00;60892.56;5917604;23;20034;-93
2023/07/09 03:24:18;;;;;;;2.03;1.33;;;;;;;-145.06;0.00;60892.56;5917932;23;20002;-92
2023/07/09 03:26:57;;;;;;;2.33;1.38;;;;;;;-145.06;0.00;60892.56;5917773;23;20013;-92
2023/07/09 03:29:39;;;;;;;1.75;1.40;;;;;;;-145.06;0.00;60892.56;5916290;23;20318;-93
2023/07/09 03:32:18;;;;;;;2.35;1.60;;;;;;;-145.06;0.00;60892.56;5917769;23;20081;-93
2023/07/09 03:34:57;;;;;;;1.85;1.42;;;;;;;-145.06;0.00;60892.56;5917753;23;20643;-93
2023/07/09 03:37:37;;;;;;;2.03;1.53;;;;;;;-145.06;0.00;60892.56;5896782;23;20449;-92
2023/07/09 03:40:23;;;;;;;2.17;1.45;;;;;;;-145.06;0.00;60892.56;5938392;23;20006;-92
2023/07/09 03:43:02;;;;;;;1.58;1.20;;;;;;;-145.06;0.00;60892.56;5916956;23;20002;-92
2023/07/09 03:45:44;;;;;;;2.88;1.30;;;;;;;-145.06;0.00;60892.56;5916930;23;20010;-92
2023/07/09 03:48:23;;;;;;;2.70;1.60;;;;;;;-145.06;0.00;60892.56;5896775;23;20373;-94
2023/07/09 03:51:02;;;;;;;1.52;1.10;;;;;;;22.18;0.00;60892.56;5916907;23;20002;-93
2023/07/09 03:53:41;;;;;;;1.63;1.20;;;;;;;-145.06;0.00;60892.56;5916985;23;20009;-93
2023/07/09 03:56:20;;;;;;;1.67;1.20;;;;;;;-145.06;0.00;60892.56;5916667;23;20009;-93
2023/07/09 03:58:59;;;;;;;3.00;1.50;;;;;;;-145.06;0.00;60892.56;5916628;23;20010;-93
2023/07/09 04:01:38;;;;;;;1.92;1.40;;;;;;;-145.06;0.00;60892.56;5916636;23;20014;-93
2023/07/09 04:04:20;;;;;;;2.05;1.40;;;;;;;-145.06;0.00;60892.56;5896134;23;20005;-93
2023/07/09 04:06:59;;;;;;;1.92;1.38;;;;;;;-145.06;0.00;60892.56;5916748;23;20429;-94
2023/07/09 04:09:38;;;;;;;1.60;1.10;;;;;;;-145.06;0.00;60892.56;5916852;23;20010;-93
2023/07/09 04:12:17;;;;;;;2.58;1.50;;;;;;;-145.06;0.00;60892.56;5916854;23;20238;-94
2023/07/09 04:14:56;;;;;;;2.30;1.17;;;;;;;-145.06;0.00;60892.56;5930328;23;20058;-91
2023/07/09 04:17:35;;;;;;;1.42;1.08;;;;;;;-145.06;0.00;60892.56;5943845;23;20040;-93
2023/07/09 04:20:15;;;;;;;2.75;1.30;;;;;;;-145.06;0.00;60892.56;5961577;23;20017;-93
2023/07/09 04:22:54;;;;;;;1.88;1.20;;;;;;;-145.06;0.00;60892.56;5953450;23;20009;-92
2023/07/09 04:25:33;;;;;;;3.20;1.50;;;;;;;-145.06;0.00;60892.56;5953177;23;20088;-94
2023/07/09 04:28:14;;;;;;;1.58;1.42;;;;;;;-145.06;0.00;60892.56;5952456;23;20428;-93
2023/07/09 04:30:53;;;;;;;1.67;1.17;;;;;;;62.66;0.00;60892.56;5952701;23;20028;-94
2023/07/09 04:33:34;;;;;;;1.83;1.40;;;;;;;-145.06;0.00;60892.56;5952579;23;20035;-94
2023/07/09 04:36:13;;;;;;;2.38;1.20;;;;;;;-145.06;0.00;60892.56;5953239;23;20244;-93
2023/07/09 04:38:52;;;;;;;1.40;1.00;;;;;;;-145.06;0.00;60892.56;5952711;23;20032;-93
2023/07/09 04:41:32;;;;;;;1.98;0.93;;;;;;;-145.06;0.00;60892.56;5953320;23;20001;-93
2023/07/09 04:44:11;;;;;;;1.27;1.00;;;;;;;-145.06;0.00;60892.56;5952816;23;20432;-94
2023/07/09 04:46:50;;;;;;;1.27;0.95;;;;;;;-145.06;0.00;60892.56;5953066;23;20009;-93
2023/07/09 04:49:29;;;;;;;1.42;1.02;;;;;;;-145.06;0.00;60892.56;5953741;23;20005;-93
2023/07/09 04:52:11;;;;;;;1.77;1.13;;;;;;;-145.06;0.00;60892.56;5953377;23;20301;-93
2023/07/09 04:54:50;;;;;;;1.85;1.30;;;;;;;22.33;0.00;60892.56;5953418;23;20009;-94
2023/07/09 04:57:29;;;;;;;1.52;1.00;;;;;;;-145.06;0.00;60892.56;5951784;23;20009;-93
2023/07/09 05:00:08;;;;;;;6.82;1.23;;;;;;;-145.06;0.00;60892.56;5952552;23;20005;-95
2023/07/09 05:02:50;;;;;;;1.67;1.23;;;;;;;-145.06;0.00;60892.56;5955069;23;20056;-92
2023/07/09 05:05:29;;;;;;;1.10;0.80;;;;;;;-145.06;0.00;60892.56;5953936;23;20012;-93
2023/07/09 05:08:08;;;;;;;1.48;1.20;;;;;;;-145.06;0.00;60892.56;5953775;23;20294;-93
2023/07/09 05:10:50;;;;;;;1.10;1.00;;;;;;;-145.06;0.00;60892.56;5954195;23;20005;-93
2023/07/09 05:13:29;;;;;;;1.67;1.15;;;;;;;-145.06;0.00;60892.56;5954319;23;20001;-92
2023/07/09 05:16:08;;;;;;;1.30;1.10;;;;;;;-145.06;0.00;60892.56;5955163;23;20052;-92
2023/07/09 05:18:47;;;;;;;0.98;0.88;;;;;;;-145.06;0.00;60892.56;5986053;23;20009;-92
2023/07/09 05:21:27;;;;;;;1.50;1.08;;;;;;;-145.06;0.00;60892.56;5953978;23;20005;-93
2023/07/09 05:24:06;;;;;;;1.58;1.10;;;;;;;104.26;0.00;60892.56;5952166;23;20279;-93
2023/07/09 05:26:46;;;;;;;1.60;1.20;;;;;;;-145.06;0.00;60892.56;5973971;23;20004;-91
2023/07/09 05:29:25;;;;;;;1.20;1.00;;;;;;;-145.06;0.00;60892.56;5952603;23;20005;-93
2023/07/09 05:32:04;;;;;;;1.85;1.38;;;;;;;-145.06;0.00;60892.56;5951293;23;20294;-94
2023/07/09 05:34:43;;;;;;;1.60;1.08;;;;;;;26.27;0.00;60892.56;5951362;23;20456;-91
2023/07/09 05:37:22;;;;;;;1.67;1.30;;;;;;;-145.06;0.00;60892.56;5950298;23;20013;-92
2023/07/09 05:40:02;;;;;;;1.45;1.00;;;;;;;-145.06;0.00;60892.56;5948213;23;20009;-90
2023/07/09 05:42:41;;;;;;;1.35;0.90;;;;;;;-145.06;0.00;60892.56;5947581;23;20452;-90
2023/07/09 05:45:23;;;;;;;1.35;0.98;;;;;;;-145.06;0.00;60892.56;5949646;23;20009;-92
2023/07/09 05:48:02;;;;;;;1.10;0.85;;;;;;;-145.06;0.00;60892.56;5950535;23;20001;-91
2023/07/09 05:50:42;;;;;;;2.03;1.10;;;;;;;-145.06;0.00;60892.56;5951995;23;20154;-91
2023/07/09 05:53:21;;;;;;;1.20;0.75;;;;;;;-145.06;0.00;60892.56;5982805;23;20005;-92
2023/07/09 05:56:00;;;;;;;;;;;;;;;-145.06;0.00;60892.56;5949946;23;20009;-94
2023/07/09 05:58:39;;;;;;;1.25;0.90;;;;;;;-145.06;0.00;60892.56;5970139;23;19904;-93
2023/07/09 06:01:20;;;;;;;0.80;0.70;;;;;;;23.54;0.00;60892.56;5949224;23;20446;-91
2023/07/09 06:03:59;;;;;;;1.25;0.88;;;;;;;-145.06;0.00;60892.56;5950599;23;20569;-94
2023/07/09 06:06:38;;;;;;;1.40;0.88;;;;;;;-145.06;0.00;60892.56;5951741;23;20005;-92
2023/07/09 06:09:17;;;;;;;1.95;0.90;;;;;;;-145.06;0.00;60892.56;5951198;23;20162;-93
2023/07/09 06:11:56;;;;;;;2.05;1.00;;;;;;;-145.06;0.00;60892.56;5951537;23;20001;-93
2023/07/09 06:18:29;;;;;;;1.23;0.88;;;;;;;-145.06;0.00;60892.56;5787356;24;20020;-91
2023/07/09 06:21:10;;;;;;;1.23;0.85;;;;;;;24.97;0.00;60892.56;5759640;23;20443;-92
2023/07/09 06:23:53;;;;;;;1.90;1.02;;;;;;;-145.06;0.00;60892.56;5984029;23;20005;-93
2023/07/09 06:26:32;;;;;;;1.50;0.90;;;;;;;-145.06;0.00;60892.56;5972974;23;20372;-93
2023/07/09 06:29:11;;;;;;;1.15;0.93;;;;;;;-145.06;0.00;60892.56;5949103;23;20420;-91
2023/07/09 06:31:50;;;;;;;1.10;0.85;;;;;;;-145.06;0.00;60892.56;5948042;23;20329;-92
2023/07/09 06:34:29;;;;;;;1.23;0.85;;;;;;;-145.06;0.00;60892.56;5947987;23;20037;-92
2023/07/09 06:37:07;;;;;;;1.58;1.00;;;;;;;-145.06;0.00;60892.56;5949621;23;20088;-92
2023/07/09 06:39:46;;;;;;;1.65;1.20;;;;;;;-145.06;0.00;60892.56;5948805;23;20008;-93
2023/07/09 06:42:25;;;;;;;1.25;1.10;;;;;;;-145.06;0.00;60892.56;5949085;23;20005;-93
2023/07/09 06:45:05;;;;;;;2.35;1.20;;;;;;;-145.06;0.00;60892.56;5951784;23;20009;-93
2023/07/09 06:47:44;;;;;;;;;;;;;;;-145.06;0.00;60892.56;5953550;23;20000;-93
2023/07/09 06:50:23;;;;;;;1.55;1.10;;;;;;;-145.06;0.00;60892.56;5971942;23;19908;-93
2023/07/09 06:53:02;;;;;;;1.00;0.77;;;;;;;-145.06;0.00;60892.56;5951840;23;20008;-93
2023/07/09 06:55:41;;;;;;;1.10;0.82;;;;;;;-145.06;0.00;60892.56;5951010;23;20005;-93
2023/07/09 06:58:21;;;;;;;;;;;;;;;-145.06;0.00;60892.56;5951913;23;20013;-93
2023/07/09 07:01:03;;;;;;;1.00;0.77;;;;;;;-145.06;0.00;60892.56;5951567;23;19912;-94
2023/07/09 07:03:42;;;;;;;0.90;0.80;;;;;;;-145.06;0.00;60892.56;5951049;23;20013;-92
2023/07/09 07:06:21;;;;;;;1.25;0.80;;;;;;;-145.06;0.00;60892.56;5951237;23;20004;-93
2023/07/09 07:09:00;;;;;;;1.30;0.75;;;;;;;-145.06;0.00;60892.56;5950244;23;20009;-92
2023/07/09 07:11:39;;;;;;;0.90;0.80;;;;;;;-145.06;0.00;60892.56;5950933;23;20251;-93
2023/07/09 07:14:18;;;;;;;1.17;0.88;;;;;;;-145.06;0.00;60892.56;5950044;23;20377;-93
2023/07/09 07:16:58;;;;;;;0.80;0.80;;;;;;;-145.06;0.00;60892.56;5949542;23;20028;-92
2023/07/09 07:19:37;;;;;;;1.20;1.08;;;;;;;-145.06;0.00;60892.56;5952897;23;20084;-91
2023/07/09 07:22:16;;;;;;;;;;;;;;;-145.06;0.00;60892.56;5949525;23;20005;-92
2023/07/09 07:24:55;;;;;;;1.58;0.90;;;;;;;-145.06;0.00;60892.56;5971355;23;20184;-93
2023/07/09 07:27:37;;;;;;;1.30;0.90;;;;;;;-145.06;0.00;60892.56;5951005;23;20072;-91
2023/07/09 07:30:17;;;;;;;1.05;0.82;;;;;;;-145.06;0.00;60892.56;5950215;23;20028;-93
2023/07/09 07:32:56;;;;;;;;;;;;;;;26.90;0.00;60892.56;5951253;23;20005;-92
2023/07/09 07:35:36;;;;;;;0.80;0.70;;;;;;;-145.06;0.00;60892.56;5972730;23;19908;-92
2023/07/09 07:38:15;;;;;;;1.23;1.00;;;;;;;-145.06;0.00;60892.56;5969418;23;20186;-91
2023/07/09 07:40:54;;;;;;;1.40;1.00;;;;;;;-145.06;0.00;60892.56;5974426;23;20028;-93
2023/07/09 07:43:33;;;;;;;1.70;1.30;;;;;;;-145.06;0.00;60892.56;5952778;23;20333;-93
2023/07/09 07:46:12;;;;;;;1.30;0.90;;;;;;;-145.06;0.00;60892.56;5950420;23;20008;-92
2023/07/09 07:48:51;;;;;;;1.42;1.02;;;;;;;-145.06;0.00;60892.56;5950553;23;20009;-91
2023/07/09 07:51:30;;;;;;;1.40;1.00;;;;;;;-145.06;0.00;60892.56;5950231;23;20076;-91
2023/07/09 07:54:09;;;;;;;1.50;0.90;;;;;;;-145.06;0.00;60892.56;5951497;23;20009;-90
2023/07/09 07:56:48;;;;;;;1.38;1.08;;;;;;;-145.06;0.00;60892.56;5949467;23;20317;-91
2023/07/09 07:59:28;;;;;;;1.75;1.00;;;;;;;-145.06;0.00;60892.56;5982217;23;20412;-92
2023/07/09 08:02:12;;;;;;;0.80;0.70;;;;;;;-145.06;0.00;60892.56;5950239;23;20005;-93
2023/07/09 08:04:51;;;;;;;2.42;0.90;;;;;;;-145.06;0.00;60892.56;5951786;23;20009;-92
2023/07/09 08:07:38;;;;;;;1.40;1.20;;;;;;;-145.06;0.00;60892.56;5957089;23;20009;-93
2023/07/09 08:10:18;;;;;;;1.48;1.08;;;;;;;-145.06;0.00;60892.56;5955271;23;20005;-92
2023/07/09 08:12:57;;;;;;;0.98;0.88;;;;;;;-145.06;0.00;60892.56;5951776;23;20013;-91
2023/07/09 08:15:36;;;;;;;1.05;0.80;;;;;;;-145.06;0.00;60892.56;5950883;23;20005;-93
2023/07/09 08:18:15;;;;;;;1.10;0.90;;;;;;;-145.06;0.00;60892.56;5951988;23;20017;-90
2023/07/09 08:20:54;;;;;;;2.67;1.17;;;;;;;-145.06;0.00;60892.56;5946123;23;20028;-90
2023/07/09 08:23:36;;;;;;;1.25;1.00;;;;;;;-145.06;0.00;60892.56;5948982;23;20313;-91
2023/07/09 08:26:15;;;;;;;1.20;0.90;;;;;;;-145.06;0.00;60892.56;5980478;23;20009;-90
2023/07/09 08:28:54;;;;;;;1.20;0.90;;;;;;;-145.06;0.00;60892.56;5981041;23;20009;-92
2023/07/09 08:31:33;;;;;;;1.30;0.93;;;;;;;-145.06;0.00;60892.56;5980449;23;20317;-90
2023/07/09 08:34:12;;;;;;;0.82;0.80;;;;;;;-145.06;0.00;60892.56;5948201;23;20009;-91
2023/07/09 08:36:51;;;;;;;1.00;0.80;;;;;;;30.83;0.00;60892.56;5948142;23;20009;-91
2023/07/09 08:39:30;;;;;;;1.48;0.77;;;;;;;-145.06;0.00;60892.56;5946907;23;20424;-92
2023/07/09 08:42:13;;;;;;;0.95;0.68;;;;;;;31.03;0.00;60892.56;5948337;23;20482;-91
2023/07/09 08:45:12;;;;;;;1.00;0.80;;;;;;;31.16;0.00;60892.56;5978737;23;20013;-91
2023/07/09 08:48:09;;;;;;;0.95;0.75;;;;;;;-145.06;0.00;60892.56;5979887;23;20001;-91
2023/07/09 08:50:56;;;;;;;0.90;0.70;;;;;;;-145.06;0.00;60892.56;5947325;23;19997;-91
2023/07/09 08:53:48;;;;;;;0.80;0.70;;;;;;;-145.06;0.00;60892.56;5947847;23;20373;-92
2023/07/09 08:56:32;;;;;;;1.00;0.73;;;;;;;-145.06;0.00;60892.56;5948004;23;20326;-91
2023/07/09 08:59:16;;;;;;;1.58;1.00;;;;;;;-145.06;0.00;60892.56;5979621;23;20005;-92
2023/07/09 09:01:59;;;;;;;0.75;0.70;;;;;;;-145.06;0.00;60892.56;5947257;23;20009;-92
2023/07/09 09:04:39;;;;;;;1.33;0.88;;;;;;;-145.06;0.00;60892.56;5946781;23;20005;-90
2023/07/09 09:07:39;;;;;;;0.65;0.65;;;;;;;-145.06;0.00;60892.56;5947159;23;20318;-92
2023/07/09 09:10:26;;;;;;;0.82;0.63;;;;;;;-145.06;0.00;60892.56;5948494;23;20028;-92
2023/07/09 09:13:12;;;;;;;1.58;0.80;;;;;;;-145.06;0.00;60892.56;5978728;23;20378;-90
2023/07/09 09:15:51;;;;;;;0.70;0.60;;;;;;;-145.06;0.00;60892.56;5945914;23;20001;-91
2023/07/09 09:18:37;;;;;;;1.13;0.70;;;;;;;-145.06;0.00;60892.56;5977868;23;20321;-90
2023/07/09 09:21:34;;;;;;;0.90;0.73;;;;;;;-145.06;0.00;60892.56;5946713;23;20009;-91
2023/07/09 09:24:25;;;;;;;1.00;0.85;;;;;;;-145.06;0.00;60892.56;5979263;23;20013;-91
2023/07/09 09:27:05;;;;;;;1.08;0.93;;;;;;;-145.06;0.00;60892.56;5946184;23;20028;-91
2023/07/09 09:29:44;;;;;;;1.20;0.85;;;;;;;187.52;0.00;60892.56;5978680;23;20013;-91
2023/07/09 09:32:28;;;;;;;1.85;1.00;;;;;;;-145.06;0.00;60892.56;5947798;23;20008;-91
2023/07/09 09:35:17;;;;;;;0.95;0.80;;;;;;;-145.06;0.00;60892.56;5948464;23;20013;-92
2023/07/09 09:37:58;;;;;;;0.80;0.73;;;;;;;-145.06;0.00;60892.56;5981828;23;20005;-93
2023/07/09 09:40:37;;;;;;;0.95;0.82;;;;;;;-145.06;0.00;60892.56;5979327;23;20001;-90
2023/07/09 09:43:19;;;;;;;1.15;0.90;;;;;;;-145.06;0.00;60892.56;5944466;23;20013;-91
2023/07/09 09:46:27;;;;;;;0.95;0.85;;;;;;;-145.06;0.00;60892.56;5980219;23;20005;-95
2023/07/09 09:49:10;;;;;;;1.38;1.10;;;;;;;-145.06;0.00;60892.56;5951029;23;20004;-93
2023/07/09 09:51:49;;;;;;;1.17;1.00;;;;;;;-145.06;0.00;60892.56;5950863;23;20033;-92
2023/07/09 09:54:31;;;;;;;1.13;0.85;;;;;;;-145.06;0.00;60892.56;5949377;23;20005;-93
2023/07/09 09:57:23;;;;;;;1.10;0.73;;;;;;;-145.06;0.00;60892.56;5972430;23;20005;-93
2023/07/09 10:00:15;;;;;;;1.13;0.88;;;;;;;-145.06;0.00;60892.56;5984803;23;19997;-91
2023/07/09 10:02:59;;;;;;;1.08;0.73;;;;;;;-145.06;0.00;60892.56;5953341;23;20313;-92
2023/07/09 10:05:44;;;;;;;1.63;0.80;;;;;;;-145.06;0.00;60892.56;5950157;23;20009;-93
2023/07/09 10:08:37;;;;;;;1.52;1.10;;;;;;;-145.06;0.00;60892.56;5948881;23;20484;-93
2023/07/09 10:11:30;;;;;;;1.02;0.70;;;;;;;-145.06;0.00;60892.56;5949889;23;20001;-91
2023/07/09 10:14:40;;;;;;;1.42;1.10;;;;;;;-145.06;0.00;60892.56;5949100;23;20004;-93
2023/07/09 10:17:32;;;;;;;0.93;0.80;;;;;;;-145.06;0.00;60892.56;5949533;23;20000;-93
2023/07/09 10:20:26;;;;;;;0.98;0.63;;;;;;;-145.06;0.00;60892.56;5949296;23;20005;-94
2023/07/09 10:23:14;;;;;;;1.20;0.82;;;;;;;-145.06;0.00;60892.56;5948603;23;20009;-91
2023/07/09 10:26:03;;;;;;;0.98;0.80;;;;;;;-145.06;0.00;60892.56;5948700;23;20013;-90
2023/07/09 10:28:56;;;;;;;1.40;1.13;;;;;;;-145.06;0.00;60892.56;5952111;23;20005;-91
2023/07/09 10:32:32;;;;;;;;;;;;;;;;;;;;;
2023/07/09 10:36:02;;;;;;;0.98;0.80;;;;;;;35.66;0.00;60892.56;5962696;23;20005;-93
2023/07/09 10:39:19;;;;;;;;;;;;;;;;;;;;;
2023/07/09 10:42:15;;;;;;;1.85;0.70;;;;;;;-145.06;0.00;60892.56;5990371;23;19997;-93
2023/07/09 10:45:04;;;;;;;1.20;0.70;;;;;;;-145.06;0.00;60892.56;5951869;23;20012;-93
2023/07/09 10:47:44;;;;;;;;;;;;;;;-145.06;0.00;60892.56;5955094;23;20013;-92
2023/07/09 10:50:40;;;;;;;1.08;0.70;;;;;;;-145.06;0.00;60892.56;5951967;23;19908;-94
2023/07/09 10:53:31;;;;;;;0.70;0.60;;;;;;;-145.06;0.00;60892.56;5954091;23;20012;-93
2023/07/09 10:56:21;;;;;;;0.90;0.60;;;;;;;-145.06;0.00;60892.56;5951797;23;20001;-93
2023/07/09 10:59:13;;;;;;;2.05;0.45;;;;;;;-145.06;0.00;60892.56;5950900;23;20005;-93
2023/07/09 11:02:01;;;;;;;1.25;0.50;;;;;;;-145.06;0.00;60892.56;5951394;23;20001;-91
2023/07/09 11:04:46;;;;;;;1.20;0.65;;;;;;;-145.06;0.00;60892.56;5981936;23;20009;-92
2023/07/09 11:07:39;;;;;;;0.80;0.60;;;;;;;-145.06;0.00;60892.56;5950662;23;20005;-91
2023/07/09 11:10:56;;;;;;;0.60;0.50;;;;;;;-145.06;0.00;60892.56;5951331;23;20005;-91
2023/07/09 11:13:42;;;;;;;1.02;0.70;;;;;;;-145.06;0.00;60892.56;5924579;23;20005;-93
2023/07/09 11:16:30;;;;;;;1.02;0.60;;;;;;;36.60;0.00;60892.56;5959311;23;20321;-92
2023/07/09 11:19:20;;;;;;;0.80;0.80;;;;;;;36.62;0.00;60892.56;5946879;23;20393;-92
2023/07/09 11:22:07;;;;;;;2.38;0.40;;;;;;;-145.06;0.00;60892.56;5946899;23;20004;-93
2023/07/09 11:24:52;;;;;;;1.02;0.73;;;;;;;-145.06;0.00;60892.56;5947013;23;20012;-91
2023/07/09 11:27:32;;;;;;;0.50;0.47;;;;;;;-145.06;0.00;60892.56;5981429;23;20009;-90
2023/07/09 11:30:22;;;;;;;0.65;0.63;;;;;;;-145.06;0.00;60892.56;5947664;23;19997;-91
2023/07/09 11:33:04;;;;;;;0.47;0.38;;;;;;;187.52;0.00;60892.56;5949688;23;20005;-91
2023/07/09 11:35:50;;;;;;;0.73;0.60;;;;;;;-145.06;0.00;60892.56;5949550;23;20202;-91
2023/07/09 11:38:39;;;;;;;1.05;0.60;;;;;;;187.52;0.00;60892.56;5949284;23;20005;-94
2023/07/09 11:41:30;;;;;;;0.93;0.75;;;;;;;-145.06;0.00;60892.56;5950972;23;20001;-94
2023/07/09 11:44:22;;;;;;;1.38;0.75;;;;;;;36.85;0.00;60892.56;5981457;23;20092;-93
2023/07/09 11:47:35;;;;;;;1.30;0.60;;;;;;;-145.06;0.00;60892.56;5949358;23;20005;-93
2023/07/09 11:50:28;;;;;;;0.90;0.63;;;;;;;187.52;0.00;60892.56;5958658;23;20364;-94
2023/07/09 11:53:36;;;;;;;0.82;0.43;;;;;;;-145.06;0.00;60892.56;5949903;23;20469;-93
2023/07/09 11:56:18;;;;;;;0.67;0.60;;;;;;;187.52;0.00;60892.56;5949470;23;20004;-93
2023/07/09 11:58:58;;;;;;;0.73;0.65;;;;;;;187.52;0.00;60892.56;5953283;23;20272;-94
2023/07/09 12:01:44;;;;;;;1.67;0.90;;;;;;;-145.06;0.00;60892.56;5957293;23;20040;-94
2023/07/09 12:04:32;;;;;;;1.23;0.82;;;;;;;-145.06;0.00;60892.56;5950931;23;20008;-94
2023/07/09 12:07:14;;;;;;;0.93;0.50;;;;;;;-145.06;0.00;60892.56;5950833;23;20084;-94
2023/07/09 12:09:53;;;;;;;1.00;0.60;;;;;;;-145.06;0.00;60892.56;5953258;23;20440;-96
2023/07/09 12:12:33;;;;;;;1.15;0.77;;;;;;;-145.06;0.00;60892.56;5952538;23;20009;-94
2023/07/09 12:15:18;;;;;;;1.05;0.70;;;;;;;-145.06;0.00;60892.56;5953440;23;20028;-94
2023/07/09 12:18:04;;;;;;;0.68;0.60;;;;;;;-145.06;0.00;60892.56;5953012;23;20009;-94
2023/07/09 12:20:53;;;;;;;1.38;0.70;;;;;;;-145.06;0.00;60892.56;5953293;23;20009;-94
2023/07/09 12:23:33;;;;;;;2.25;0.55;;;;;;;37.38;0.00;60892.56;5953351;23;20005;-94
2023/07/09 12:26:18;;;;;;;0.90;0.60;;;;;;;-145.06;0.00;60892.56;5953410;23;20001;-94
2023/07/09 12:28:58;;;;;;;1.20;0.80;;;;;;;-145.06;0.00;60892.56;5948367;23;20005;-92
2023/07/09 12:31:39;;;;;;;3.13;0.90;;;;;;;-145.06;0.00;60892.56;5952952;23;20001;-94
2023/07/09 12:34:18;;;;;;;0.82;0.57;;;;;;;-145.06;0.00;60892.56;5932001;23;20013;-92
2023/07/09 12:36:57;;;;;;;1.20;0.63;;;;;;;-145.06;0.00;60892.56;5952780;23;20013;-94
2023/07/09 12:39:37;;;;;;;0.70;0.60;;;;;;;-145.06;0.00;60892.56;5952693;23;20385;-93
2023/07/09 12:42:24;;;;;;;0.98;0.85;;;;;;;-145.06;0.00;60892.56;5950448;23;20005;-92
2023/07/09 12:45:05;;;;;;;0.77;0.55;;;;;;;-145.06;0.00;60892.56;5950465;23;20228;-92
2023/07/09 12:47:48;;;;;;;0.88;0.70;;;;;;;-145.06;0.00;60892.56;5951364;23;20009;-93